Time;durP1;ratioP1;P1;durP2;ratioP2;P2;SDS_P1;SDS_P2;PMS_P1;PMS_P2;Temp;Humidity;BMP_temperature;BMP_pressure;BME280_temperature;BME280_humidity;BME280_pressure;Samples;Min_cycle;Max_cycle;Signal;HPM_P1;HPM_P2
2023/02/15 00:01:21;;;;;;;41.55;23.38;;;1.50;99.90;;;;;;5016255;28;20148;-76
2023/02/15 00:03:50;;;;;;;36.40;22.48;;;1.50;99.90;;;;;;5031698;28;20083;-76
2023/02/15 00:06:16;;;;;;;37.33;21.77;;;1.40;99.90;;;;;;5021367;28;20474;-76
2023/02/15 00:08:42;;;;;;;36.10;21.52;;;1.20;99.90;;;;;;5015699;28;20046;-76
2023/02/15 00:11:09;;;;;;;34.75;20.90;;;1.00;99.90;;;;;;5025111;28;20079;-76
2023/02/15 00:13:35;;;;;;;37.85;21.13;;;1.30;99.90;;;;;;5015075;28;20107;-76
2023/02/15 00:16:10;;;;;;;39.45;22.23;;;1.20;99.90;;;;;;5020626;28;20474;-76
2023/02/15 00:18:38;;;;;;;39.00;22.25;;;1.10;99.90;;;;;;5017289;28;20057;-76
2023/02/15 00:21:04;;;;;;;;;;;1.30;99.90;;;;;;5018980;28;20045;-76
2023/02/15 00:23:30;;;;;;;72.20;32.45;;;1.20;99.90;;;;;;5032405;28;19956;-76
2023/02/15 00:26:10;;;;;;;37.03;21.75;;;1.10;99.90;;;;;;5012599;28;20076;-76
2023/02/15 00:28:36;;;;;;;47.38;24.60;;;1.20;99.90;;;;;;5018046;28;20038;-76
2023/02/15 00:31:08;;;;;;;59.58;26.10;;;1.10;99.90;;;;;;5017212;28;20079;-76
2023/02/15 00:33:34;;;;;;;81.93;29.42;;;1.30;99.90;;;;;;5003742;28;20124;-76
2023/02/15 00:36:00;;;;;;;54.60;25.05;;;1.30;99.90;;;;;;4999092;28;20133;-75
2023/02/15 00:38:29;;;;;;;113.47;28.92;;;1.40;99.90;;;;;;5017210;28;20068;-75
2023/02/15 00:40:55;;;;;;;70.40;25.88;;;1.10;99.90;;;;;;5039969;28;20466;-75
2023/02/15 00:43:21;;;;;;;162.57;30.15;;;1.30;99.90;;;;;;5025717;28;20096;-76
2023/02/15 00:45:47;;;;;;;167.25;33.08;;;1.40;99.90;;;;;;5035500;28;20045;-75
2023/02/15 00:48:13;;;;;;;167.07;31.40;;;1.30;99.90;;;;;;5035899;28;20042;-75
2023/02/15 00:50:39;;;;;;;116.63;31.10;;;1.40;99.90;;;;;;5017501;28;20033;-76
2023/02/15 00:53:05;;;;;;;142.02;31.40;;;1.30;99.90;;;;;;5027137;28;20069;-76
2023/02/15 00:55:31;;;;;;;74.38;28.80;;;1.30;99.90;;;;;;5033562;28;20068;-76
2023/02/15 00:57:56;;;;;;;79.63;28.80;;;1.20;99.90;;;;;;5018272;28;20082;-76
2023/02/15 01:00:22;;;;;;;54.15;26.35;;;1.30;99.90;;;;;;5034175;28;20608;-76
2023/02/15 01:02:48;;;;;;;57.83;27.60;;;1.30;99.90;;;;;;5034616;28;20496;-76
2023/02/15 01:05:14;;;;;;;55.60;26.90;;;1.60;99.90;;;;;;5033530;28;20442;-76
2023/02/15 01:07:39;;;;;;;50.42;25.33;;;1.50;99.90;;;;;;5047091;28;20038;-76
2023/02/15 01:10:07;;;;;;;50.92;27.02;;;1.50;99.90;;;;;;5014615;28;20045;-76
2023/02/15 01:12:33;;;;;;;42.88;24.45;;;1.50;99.90;;;;;;5046179;28;20041;-76
2023/02/15 01:14:59;;;;;;;44.70;24.17;;;1.50;99.90;;;;;;5019541;28;20046;-76
2023/02/15 01:17:25;;;;;;;40.92;23.42;;;1.50;99.90;;;;;;5001645;28;20490;-75
2023/02/15 01:19:51;;;;;;;47.80;25.20;;;1.50;99.90;;;;;;5006002;28;20042;-74
2023/02/15 01:22:17;;;;;;;55.47;26.70;;;1.40;99.90;;;;;;5014208;28;20054;-74
2023/02/15 01:24:43;;;;;;;59.38;27.15;;;1.30;99.90;;;;;;4995683;28;20501;-74
2023/02/15 01:27:09;;;;;;;67.65;28.05;;;1.10;99.90;;;;;;5026452;28;20057;-74
2023/02/15 01:29:35;;;;;;;68.13;31.30;;;0.90;99.90;;;;;;5020936;28;20041;-74
2023/02/15 01:32:01;;;;;;;57.65;27.33;;;0.90;99.90;;;;;;5041213;28;20461;-74
2023/02/15 01:34:27;;;;;;;74.53;33.05;;;0.90;99.90;;;;;;5020215;28;20111;-74
2023/02/15 01:36:52;;;;;;;69.60;30.27;;;0.90;99.90;;;;;;5035103;28;20046;-73
2023/02/15 01:39:18;;;;;;;74.45;31.73;;;0.90;99.90;;;;;;5029180;28;20045;-73
2023/02/15 01:41:44;;;;;;;75.78;30.80;;;0.80;99.90;;;;;;5009492;28;20045;-73
2023/02/15 01:44:44;;;;;;;82.72;30.60;;;0.90;99.90;;;;;;5028445;28;20041;-74
2023/02/15 01:47:17;;;;;;;70.45;28.40;;;0.80;99.90;;;;;;5044120;28;20144;-74
2023/02/15 01:49:44;;;;;;;99.18;30.65;;;0.90;99.90;;;;;;5018229;28;20046;-73
2023/02/15 01:52:10;;;;;;;68.30;30.13;;;0.60;99.90;;;;;;5011525;28;20051;-73
2023/02/15 01:54:36;;;;;;;100.22;34.70;;;0.70;99.90;;;;;;5025140;28;20050;-73
2023/02/15 01:57:04;;;;;;;69.00;31.33;;;0.60;99.90;;;;;;5003488;28;20803;-73
2023/02/15 01:59:30;;;;;;;74.25;34.05;;;0.70;99.90;;;;;;5034571;28;20470;-73
2023/02/15 02:01:57;;;;;;;77.18;33.75;;;0.80;99.90;;;;;;5009899;28;20112;-73
2023/02/15 02:04:43;;;;;;;84.93;37.33;;;1.00;99.90;;;;;;5021045;28;20085;-73
2023/02/15 02:07:09;;;;;;;72.78;32.40;;;1.10;99.90;;;;;;5016188;28;20490;-72
2023/02/15 02:09:36;;;;;;;85.78;37.00;;;1.10;99.90;;;;;;5002677;28;20466;-72
2023/02/15 02:12:02;;;;;;;71.25;32.90;;;1.10;99.90;;;;;;4988126;28;20362;-73
2023/02/15 02:14:27;;;;;;;92.45;36.05;;;1.10;99.90;;;;;;5027089;28;20049;-74
2023/02/15 02:17:00;;;;;;;63.83;31.58;;;1.10;99.90;;;;;;5039845;28;20046;-73
2023/02/15 02:19:57;;;;;;;64.63;30.27;;;1.10;99.90;;;;;;5030473;28;20049;-73
2023/02/15 02:22:38;;;;;;;56.67;28.98;;;1.20;99.90;;;;;;5023371;28;20169;-73
2023/02/15 02:25:45;;;;;;;56.45;28.65;;;1.20;99.90;;;;;;5055802;28;20164;-73
2023/02/15 02:28:49;;;;;;;63.63;30.48;;;1.30;99.90;;;;;;5021089;28;20475;-74
2023/02/15 02:31:15;;;;;;;62.42;30.30;;;1.30;99.90;;;;;;5025446;28;20128;-73
2023/02/15 02:34:22;;;;;;;88.47;37.15;;;1.20;99.90;;;;;;5023086;28;20106;-73
2023/02/15 02:36:59;;;;;;;63.03;30.27;;;1.10;99.90;;;;;;5000253;28;20049;-73
2023/02/15 02:39:36;;;;;;;67.50;30.15;;;1.20;99.90;;;;;;4990405;28;20638;-73
2023/02/15 02:42:27;;;;;;;68.00;30.05;;;1.10;99.90;;;;;;5007606;28;20042;-73
2023/02/15 02:45:03;;;;;;;153.95;37.30;;;1.20;99.90;;;;;;5027330;28;20038;-73
2023/02/15 02:47:50;;;;;;;69.55;32.08;;;1.10;99.90;;;;;;5009927;28;20548;-73
2023/02/15 02:50:21;;;;;;;79.65;30.75;;;1.20;99.90;;;;;;5017006;28;20754;-73
2023/02/15 02:52:51;;;;;;;71.80;31.40;;;1.20;99.90;;;;;;5024993;28;20053;-73
2023/02/15 02:55:17;;;;;;;145.45;31.58;;;1.00;99.90;;;;;;5030450;28;20669;-73
2023/02/15 02:58:11;;;;;;;72.22;25.95;;;1.00;99.90;;;;;;5033548;28;20467;-73
2023/02/15 03:00:40;;;;;;;239.55;37.83;;;0.90;99.90;;;;;;5020373;28;20773;-74
2023/02/15 03:03:38;;;;;;;114.38;29.50;;;0.60;99.90;;;;;;5029902;28;20374;-73
2023/02/15 03:06:09;;;;;;;175.82;30.63;;;0.60;99.90;;;;;;5015931;28;20049;-73
2023/02/15 03:08:37;;;;;;;82.32;28.05;;;0.40;99.90;;;;;;5025049;28;20041;-77
2023/02/15 03:11:03;;;;;;;135.27;31.58;;;0.50;99.90;;;;;;5013066;28;20045;-77
2023/02/15 03:13:29;;;;;;;105.57;28.00;;;0.60;99.90;;;;;;4983470;28;20064;-77
2023/02/15 03:18:52;;;;;;;86.50;27.58;;;0.60;99.90;;;;;;5042355;28;20430;-77
2023/02/15 03:21:22;;;;;;;107.18;27.92;;;0.70;99.90;;;;;;5016495;28;20132;-77
2023/02/15 03:23:58;;;;;;;122.60;32.60;;;0.60;99.90;;;;;;5037410;28;20037;-77
2023/02/15 03:26:23;;;;;;;63.80;25.02;;;0.70;99.90;;;;;;5009629;28;20080;-77
2023/02/15 03:28:51;;;;;;;62.45;23.02;;;0.50;99.90;;;;;;5016500;28;20470;-77
2023/02/15 03:31:17;;;;;;;53.13;22.25;;;0.50;99.90;;;;;;5014888;28;20363;-77
2023/02/15 03:33:48;;;;;;;65.63;23.63;;;0.40;99.90;;;;;;5024021;28;20038;-77
2023/02/15 03:36:23;;;;;;;67.53;23.45;;;0.40;99.90;;;;;;5009369;28;20053;-77
2023/02/15 03:38:53;;;;;;;63.72;23.20;;;0.30;99.90;;;;;;4980376;28;20087;-77
2023/02/15 03:41:19;;;;;;;45.22;22.88;;;0.30;99.90;;;;;;5010234;28;20049;-77
2023/02/15 03:43:51;;;;;;;48.75;21.92;;;0.40;99.90;;;;;;4993227;28;20038;-77
2023/02/15 03:46:33;;;;;;;63.95;26.08;;;0.40;99.90;;;;;;5020343;28;20057;-77
2023/02/15 03:49:05;;;;;;;51.65;23.05;;;0.30;99.90;;;;;;5034202;28;20385;-76
2023/02/15 03:51:33;;;;;;;37.97;21.23;;;0.40;99.90;;;;;;5015897;28;20048;-77
2023/02/15 03:54:12;;;;;;;45.88;23.25;;;0.40;99.90;;;;;;5031974;28;20049;-76
2023/02/15 03:56:40;;;;;;;42.17;21.67;;;0.50;99.90;;;;;;5027006;28;20140;-77
2023/02/15 04:02:15;;;;;;;42.75;22.95;;;0.50;99.90;;;;;;5032622;28;20049;-76
2023/02/15 04:04:43;;;;;;;46.90;23.23;;;0.40;99.90;;;;;;5047351;28;20458;-77
2023/02/15 04:07:09;;;;;;;41.30;22.45;;;0.40;99.90;;;;;;5041617;28;20061;-77
2023/02/15 04:12:19;;;;;;;41.67;23.42;;;0.50;99.90;;;;;;5022449;28;20466;-77
2023/02/15 04:17:29;;;;;;;40.85;21.80;;;0.50;99.90;;;;;;5040553;28;20038;-77
2023/02/15 04:25:24;;;;;;;44.22;22.95;;;0.50;99.90;;;;;;5033266;28;20038;-77
2023/02/15 04:27:52;;;;;;;44.38;23.70;;;0.60;99.90;;;;;;5002147;28;20037;-77
2023/02/15 04:30:19;;;;;;;43.78;23.13;;;0.50;99.90;;;;;;5001912;28;20084;-76
2023/02/15 04:32:45;;;;;;;42.42;24.15;;;0.40;99.90;;;;;;5016121;28;20057;-76
2023/02/15 04:35:12;;;;;;;42.97;22.73;;;0.30;99.90;;;;;;5034685;28;20033;-76
2023/02/15 04:37:39;;;;;;;41.72;22.48;;;0.40;99.90;;;;;;5002518;28;20041;-76
2023/02/15 04:40:05;;;;;;;53.92;26.05;;;0.20;99.90;;;;;;5018756;28;20052;-76
2023/02/15 04:42:31;;;;;;;49.28;24.05;;;0.10;99.90;;;;;;5034792;28;20355;-76
2023/02/15 04:44:56;;;;;;;38.53;22.30;;;0.10;99.90;;;;;;5034078;28;20052;-76
2023/02/15 04:47:22;;;;;;;39.63;21.65;;;0.00;99.90;;;;;;5018440;28;20740;-77
2023/02/15 04:49:48;;;;;;;41.97;22.95;;;0.20;99.90;;;;;;5016692;28;20468;-76
2023/02/15 04:52:14;;;;;;;49.72;24.80;;;0.30;99.90;;;;;;5011624;28;20045;-76
2023/02/15 04:54:40;;;;;;;43.15;22.20;;;0.20;99.90;;;;;;5017413;28;20120;-76
2023/02/15 04:57:06;;;;;;;40.88;23.08;;;0.20;99.90;;;;;;5027510;28;20085;-76
2023/02/15 04:59:32;;;;;;;39.33;21.35;;;0.40;99.90;;;;;;5005394;28;20051;-77
2023/02/15 05:01:59;;;;;;;48.33;24.00;;;0.30;99.90;;;;;;5001102;28;20046;-76
2023/02/15 05:04:25;;;;;;;39.08;21.45;;;0.30;99.90;;;;;;4976087;28;20103;-76
2023/02/15 05:06:51;;;;;;;41.60;22.23;;;0.40;99.90;;;;;;5026509;28;20053;-77
2023/02/15 05:09:16;;;;;;;50.75;25.00;;;0.30;99.90;;;;;;5015346;28;20057;-76
2023/02/15 05:11:42;;;;;;;42.83;21.70;;;0.20;99.90;;;;;;5005030;28;20046;-76
2023/02/15 05:14:08;;;;;;;45.53;21.98;;;0.30;99.90;;;;;;5021430;28;20053;-76
2023/02/15 05:16:35;;;;;;;47.88;22.42;;;0.20;99.90;;;;;;5022485;28;20129;-77
2023/02/15 05:19:01;;;;;;;45.47;23.40;;;0.20;99.90;;;;;;5020991;28;20135;-76
2023/02/15 05:21:27;;;;;;;36.38;19.85;;;0.20;99.90;;;;;;5020505;28;20470;-76
2023/02/15 05:23:53;;;;;;;40.78;21.23;;;0.30;99.90;;;;;;5022528;28;20108;-76
2023/02/15 05:29:05;;;;;;;43.88;23.02;;;0.30;99.90;;;;;;5029319;28;20089;-76
2023/02/15 05:31:31;;;;;;;38.17;21.98;;;0.30;99.90;;;;;;5021263;28;20098;-76
2023/02/15 05:33:57;;;;;;;54.15;23.75;;;0.20;99.90;;;;;;5021440;28;20053;-76
2023/02/15 05:36:23;;;;;;;33.92;19.17;;;0.20;99.90;;;;;;5027722;28;20053;-76
2023/02/15 05:38:48;;;;;;;31.63;19.10;;;0.20;99.90;;;;;;5022856;28;20140;-76
2023/02/15 05:41:14;;;;;;;36.22;19.25;;;0.10;99.90;;;;;;5031040;28;20045;-77
2023/02/15 05:43:40;;;;;;;40.33;21.92;;;0.20;99.90;;;;;;5033530;28;20109;-77
2023/02/15 05:46:06;;;;;;;35.80;18.10;;;0.20;99.90;;;;;;5025204;28;20061;-72
2023/02/15 05:48:32;;;;;;;33.03;19.20;;;0.20;99.90;;;;;;5029772;28;20053;-72
2023/02/15 05:51:01;;;;;;;34.38;19.80;;;0.00;99.90;;;;;;5014126;28;20056;-73
2023/02/15 05:53:28;;;;;;;35.08;19.95;;;0.10;99.90;;;;;;5005613;28;20046;-73
2023/02/15 05:55:58;;;;;;;35.20;19.58;;;0.10;99.90;;;;;;5024483;28;20120;-73
2023/02/15 05:58:29;;;;;;;34.58;20.40;;;-0.10;99.90;;;;;;5029735;28;20160;-73
2023/02/15 06:00:54;;;;;;;91.43;24.00;;;0.00;99.90;;;;;;5007914;28;20687;-73
2023/02/15 06:03:20;;;;;;;48.35;21.83;;;-0.30;99.90;;;;;;5029440;28;20041;-73
2023/02/15 06:05:46;;;;;;;57.38;21.90;;;-0.30;99.90;;;;;;5044961;28;20053;-73
2023/02/15 06:08:13;;;;;;;45.33;22.00;;;-0.20;99.90;;;;;;5017662;28;20058;-73
2023/02/15 06:10:40;;;;;;;45.42;22.75;;;-0.30;99.90;;;;;;5010416;28;20050;-73
2023/02/15 06:13:07;;;;;;;37.13;19.95;;;-0.40;99.90;;;;;;5015168;28;20775;-73
2023/02/15 06:15:33;;;;;;;48.63;23.30;;;-0.20;99.90;;;;;;5013872;28;20130;-73
2023/02/15 06:17:58;;;;;;;38.42;20.25;;;-0.20;99.90;;;;;;5009613;28;20113;-73
2023/02/15 06:20:24;;;;;;;34.28;18.63;;;-0.30;99.90;;;;;;5023790;28;20041;-73
2023/02/15 06:22:50;;;;;;;33.90;19.25;;;-0.30;99.90;;;;;;5033010;28;20111;-73
2023/02/15 06:25:16;;;;;;;36.08;20.15;;;-0.30;99.90;;;;;;5020202;28;20041;-73
2023/02/15 06:27:42;;;;;;;39.75;22.85;;;-0.20;99.90;;;;;;5010218;28;20049;-73
2023/02/15 06:30:08;;;;;;;38.92;20.17;;;-0.20;99.90;;;;;;5024646;28;20038;-73
2023/02/15 06:32:34;;;;;;;31.92;18.85;;;-0.20;99.90;;;;;;5001831;28;20084;-73
2023/02/15 06:35:00;;;;;;;33.47;19.42;;;-0.30;99.90;;;;;;5009880;28;20132;-73
2023/02/15 06:37:27;;;;;;;36.08;19.67;;;-0.20;99.90;;;;;;5035294;28;20056;-73
2023/02/15 06:39:52;;;;;;;44.58;22.52;;;-0.20;99.90;;;;;;5021032;28;20084;-73
2023/02/15 06:42:19;;;;;;;40.53;22.85;;;-0.40;99.90;;;;;;5013236;28;20061;-73
2023/02/15 06:44:45;;;;;;;39.33;21.88;;;-0.30;99.90;;;;;;5036318;28;20136;-73
2023/02/15 06:47:11;;;;;;;47.03;23.75;;;-0.30;99.90;;;;;;5016729;28;20762;-73
2023/02/15 06:49:37;;;;;;;34.55;20.50;;;-0.50;99.90;;;;;;5024626;28;20354;-73
2023/02/15 06:52:03;;;;;;;40.50;20.30;;;-0.30;99.90;;;;;;5009561;28;20083;-73
2023/02/15 06:54:28;;;;;;;39.92;22.30;;;-0.40;99.90;;;;;;5010404;28;20127;-73
2023/02/15 06:56:54;;;;;;;40.33;22.17;;;-0.40;99.90;;;;;;5001866;28;20140;-73
2023/02/15 06:59:20;;;;;;;38.13;23.08;;;-0.30;99.90;;;;;;5038755;28;20578;-73
2023/02/15 07:01:46;;;;;;;41.40;22.92;;;-0.20;99.90;;;;;;5009995;28;20049;-73
2023/02/15 07:04:11;;;;;;;33.95;19.75;;;-0.20;99.90;;;;;;5039643;28;20132;-73
2023/02/15 07:06:37;;;;;;;35.78;22.13;;;-0.30;99.90;;;;;;5033336;28;20061;-73
2023/02/15 07:09:04;;;;;;;38.45;22.13;;;-0.20;99.90;;;;;;5039606;28;20042;-73
2023/02/15 07:14:14;;;;;;;40.92;21.10;;;0.00;99.90;;;;;;5038055;28;20057;-73
2023/02/15 07:16:39;;;;;;;33.05;20.48;;;0.10;99.90;;;;;;5024320;28;20049;-73
2023/02/15 07:19:05;;;;;;;32.65;19.70;;;0.20;99.90;;;;;;5029712;28;20045;-73
2023/02/15 07:21:31;;;;;;;28.58;17.05;;;0.00;99.90;;;;;;5030300;28;20052;-73
2023/02/15 07:24:00;;;;;;;32.10;19.13;;;0.20;99.90;;;;;;5025506;28;20041;-73
2023/02/15 07:26:26;;;;;;;28.50;17.52;;;0.20;99.90;;;;;;5027545;28;20107;-73
2023/02/15 07:28:51;;;;;;;34.25;19.13;;;0.30;99.90;;;;;;4988440;28;20037;-73
2023/02/15 07:31:17;;;;;;;33.70;19.50;;;0.20;99.90;;;;;;5027403;28;20096;-73
2023/02/15 07:33:43;;;;;;;32.30;19.50;;;0.10;99.90;;;;;;5011988;28;20037;-73
2023/02/15 07:36:12;;;;;;;25.52;16.58;;;0.20;99.90;;;;;;5019683;28;20063;-73
2023/02/15 07:38:39;;;;;;;28.98;18.00;;;0.30;99.90;;;;;;5009336;28;20048;-73
2023/02/15 07:41:07;;;;;;;29.08;17.75;;;0.30;99.90;;;;;;5030418;28;20041;-73
2023/02/15 07:43:33;;;;;;;27.80;17.67;;;0.30;99.90;;;;;;5012443;28;20053;-74
2023/02/15 07:46:04;;;;;;;30.80;18.27;;;0.40;99.90;;;;;;5026693;28;20079;-74
2023/02/15 07:48:29;;;;;;;30.08;18.90;;;0.50;99.90;;;;;;4998491;28;20140;-73
2023/02/15 07:50:59;;;;;;;27.42;17.23;;;0.40;99.90;;;;;;5009569;28;20132;-73
2023/02/15 07:53:24;;;;;;;32.72;19.60;;;0.30;99.90;;;;;;5028544;28;20041;-72
2023/02/15 07:55:52;;;;;;;31.88;18.63;;;0.40;99.90;;;;;;5012734;28;20071;-73
2023/02/15 07:58:18;;;;;;;31.02;18.33;;;0.50;99.90;;;;;;4995758;28;20059;-72
2023/02/15 08:01:01;;;;;;;32.65;19.95;;;0.60;99.90;;;;;;5016601;28;20061;-72
2023/02/15 08:03:28;;;;;;;30.83;18.02;;;0.60;99.90;;;;;;5028692;28;20056;-72
2023/02/15 08:05:58;;;;;;;30.47;18.70;;;0.60;99.90;;;;;;5009072;28;20057;-72
2023/02/15 08:08:31;;;;;;;28.83;17.75;;;0.60;99.90;;;;;;4970027;28;20041;-73
2023/02/15 08:13:55;;;;;;;33.28;19.55;;;0.70;99.90;;;;;;5040638;28;20091;-73
2023/02/15 08:16:25;;;;;;;31.52;19.15;;;0.60;99.90;;;;;;5016635;28;20045;-73
2023/02/15 08:18:53;;;;;;;31.33;19.05;;;0.70;99.90;;;;;;5021510;28;20115;-73
2023/02/15 08:21:19;;;;;;;33.05;19.73;;;0.80;99.90;;;;;;5010042;28;21973;-73
2023/02/15 08:23:45;;;;;;;31.55;18.65;;;0.80;99.90;;;;;;5023985;28;20050;-73
2023/02/15 08:26:11;;;;;;;35.67;21.08;;;0.90;99.90;;;;;;5005251;28;20060;-73
2023/02/15 08:28:36;;;;;;;36.50;21.70;;;1.00;99.90;;;;;;5026171;28;20518;-77
2023/02/15 08:31:10;;;;;;;39.22;23.05;;;0.90;99.90;;;;;;5018024;28;20049;-76
2023/02/15 08:33:36;;;;;;;36.13;20.25;;;0.90;99.90;;;;;;5029090;28;20129;-76
2023/02/15 08:36:06;;;;;;;42.05;23.27;;;0.90;99.90;;;;;;5030048;28;20083;-77
2023/02/15 08:38:32;;;;;;;41.13;23.38;;;0.90;99.90;;;;;;5033730;28;20045;-77
2023/02/15 08:41:04;;;;;;;41.72;23.33;;;0.90;99.90;;;;;;5008443;28;20041;-76
2023/02/15 08:43:29;;;;;;;44.47;24.73;;;1.00;99.90;;;;;;5031182;28;20075;-77
2023/02/15 08:45:55;;;;;;;37.05;20.88;;;1.10;99.90;;;;;;5022707;28;20065;-77
2023/02/15 08:48:21;;;;;;;34.72;21.10;;;1.30;99.90;;;;;;4992381;28;20038;-76
2023/02/15 08:50:47;;;;;;;39.85;21.33;;;1.40;99.90;;;;;;5010825;28;20045;-76
2023/02/15 08:53:13;;;;;;;49.75;27.90;;;1.40;99.90;;;;;;5025584;28;20096;-77
2023/02/15 08:55:39;;;;;;;42.00;24.95;;;1.50;99.90;;;;;;4998896;28;20488;-77
2023/02/15 08:58:05;;;;;;;46.50;26.48;;;1.60;99.90;;;;;;5007773;28;20512;-77
2023/02/15 09:00:31;;;;;;;43.85;24.65;;;1.80;99.90;;;;;;5014893;28;20106;-77
2023/02/15 09:02:57;;;;;;;36.13;20.88;;;2.00;99.90;;;;;;5029309;28;20139;-77
2023/02/15 09:05:23;;;;;;;36.72;22.38;;;2.10;99.90;;;;;;5016155;28;20049;-77
2023/02/15 09:07:48;;;;;;;38.03;21.35;;;2.30;99.90;;;;;;5026479;28;20042;-77
2023/02/15 09:10:14;;;;;;;36.85;20.73;;;2.30;99.90;;;;;;5003709;28;20046;-77
2023/02/15 09:12:40;;;;;;;40.28;21.45;;;2.40;99.90;;;;;;5010671;28;20045;-77
2023/02/15 09:15:06;;;;;;;38.85;22.13;;;2.50;99.90;;;;;;5026498;28;20049;-77
2023/02/15 09:17:33;;;;;;;32.92;20.48;;;2.60;99.90;;;;;;4993611;28;20080;-77
2023/02/15 09:19:58;;;;;;;45.88;21.92;;;2.70;99.90;;;;;;5007541;28;20046;-77
2023/02/15 09:22:24;;;;;;;38.38;22.20;;;2.70;99.90;;;;;;5018522;28;20052;-77
2023/02/15 09:24:50;;;;;;;31.80;20.63;;;2.90;99.90;;;;;;5016689;28;20056;-77
2023/02/15 09:27:15;;;;;;;39.65;24.55;;;3.00;99.90;;;;;;5025445;28;20049;-77
2023/02/15 09:29:41;;;;;;;39.15;23.10;;;3.10;99.90;;;;;;5017065;28;20045;-77
2023/02/15 09:32:07;;;;;;;34.13;21.38;;;3.10;99.90;;;;;;5026618;28;20042;-77
2023/02/15 09:34:33;;;;;;;37.65;20.63;;;3.20;99.90;;;;;;4998766;28;20049;-77
2023/02/15 09:37:02;;;;;;;37.60;22.17;;;3.30;99.90;;;;;;5016447;28;20077;-77
2023/02/15 09:39:29;;;;;;;34.53;21.05;;;3.40;99.90;;;;;;5049017;28;20138;-77
2023/02/15 09:42:36;;;;;;;33.42;20.98;;;3.50;99.90;;;;;;5043951;28;20046;-78
2023/02/15 09:45:23;;;;;;;34.17;21.30;;;3.70;99.90;;;;;;5040962;28;20050;-76
2023/02/15 09:48:01;;;;;;;34.60;20.67;;;4.20;99.90;;;;;;5042186;28;20053;-75
2023/02/15 09:50:41;;;;;;;35.05;21.52;;;4.50;99.90;;;;;;5035674;28;20050;-75
2023/02/15 09:53:38;;;;;;;32.88;18.65;;;4.60;99.90;;;;;;5026783;28;20084;-73
2023/02/15 09:56:04;;;;;;;33.30;20.08;;;5.30;99.90;;;;;;5041166;28;20037;-77
2023/02/15 09:58:52;;;;;;;28.33;14.70;;;5.50;99.90;;;;;;5032558;28;20141;-77
2023/02/15 10:01:34;;;;;;;27.63;16.67;;;5.80;99.90;;;;;;5027687;28;20045;-77
2023/02/15 10:04:05;;;;;;;26.35;14.05;;;6.00;99.90;;;;;;5005337;28;20471;-77
2023/02/15 10:07:12;;;;;;;18.42;11.68;;;6.30;99.90;;;;;;5040052;28;20060;-77
2023/02/15 10:09:57;;;;;;;23.83;14.25;;;6.20;99.90;;;;;;5027715;28;20489;-76
2023/02/15 10:12:30;;;;;;;20.48;13.82;;;6.90;99.90;;;;;;5036620;28;20442;-77
2023/02/15 10:15:02;;;;;;;20.85;13.45;;;7.00;99.90;;;;;;4998896;28;20050;-77
2023/02/15 10:17:46;;;;;;;20.95;13.90;;;7.30;99.90;;;;;;5052537;28;20462;-77
2023/02/15 10:20:52;;;;;;;24.80;13.95;;;7.30;99.90;;;;;;5028959;28;20085;-77
2023/02/15 10:23:30;;;;;;;21.85;13.68;;;7.50;99.90;;;;;;5027616;28;20120;-77
2023/02/15 10:26:02;;;;;;;20.15;12.57;;;7.70;99.90;;;;;;5058796;28;20125;-77
2023/02/15 10:28:52;;;;;;;17.35;12.57;;;7.90;99.90;;;;;;5031031;28;20041;-77
2023/02/15 10:31:43;;;;;;;17.67;12.43;;;8.40;99.90;;;;;;5047281;28;20077;-77
2023/02/15 10:34:15;;;;;;;17.98;11.77;;;8.60;99.90;;;;;;5026724;28;20056;-77
2023/02/15 10:36:43;;;;;;;19.50;13.13;;;8.90;99.90;;;;;;5044788;28;20045;-77
2023/02/15 10:39:24;;;;;;;;;;;9.10;99.90;;;;;;5027335;28;20144;-77
2023/02/15 10:42:06;;;;;;;18.70;11.80;;;9.30;99.90;;;;;;5026899;28;20510;-77
2023/02/15 10:44:46;;;;;;;17.80;11.13;;;9.60;99.90;;;;;;5055760;28;20046;-76
2023/02/15 10:47:24;;;;;;;18.63;13.18;;;10.00;99.90;;;;;;5019120;28;20778;-77
2023/02/15 10:49:53;;;;;;;18.63;11.63;;;10.10;99.90;;;;;;5027595;28;20052;-77
2023/02/15 10:52:35;;;;;;;17.05;11.80;;;10.00;99.90;;;;;;5019535;28;20056;-78
2023/02/15 10:55:06;;;;;;;16.95;11.10;;;10.10;99.90;;;;;;5014394;28;20454;-77
2023/02/15 10:57:57;;;;;;;17.17;11.13;;;10.40;99.90;;;;;;5033538;28;20045;-76
2023/02/15 11:01:14;;;;;;;14.82;9.30;;;10.60;99.90;;;;;;4994251;28;20046;-78
2023/02/15 11:03:52;;;;;;;15.05;8.23;;;10.60;99.90;;;;;;5025049;28;20046;-77
2023/02/15 11:06:20;;;;;;;15.13;8.75;;;11.30;99.90;;;;;;5034988;28;20056;-76
2023/02/15 11:09:17;;;;;;;13.38;8.30;;;11.80;99.90;;;;;;5018187;28;20432;-76
2023/02/15 11:11:46;;;;;;;14.43;8.77;;;11.50;99.90;;;;;;5058336;28;20037;-75
2023/02/15 11:14:33;;;;;;;10.57;7.05;;;12.20;99.90;;;;;;5018589;28;20287;-75
2023/02/15 11:17:12;;;;;;;10.45;5.88;;;15.10;97.00;;;;;;5028538;28;20149;-77
2023/02/15 11:19:39;;;;;;;;;;;18.10;65.70;;;;;;5002633;28;20425;-76
2023/02/15 11:22:06;;;;;;;8.32;5.68;;;19.00;62.40;;;;;;5039567;28;19921;-76
2023/02/15 11:24:35;;;;;;;9.40;5.32;;;18.60;50.90;;;;;;5009347;28;20057;-76
2023/02/15 11:27:04;;;;;;;7.10;5.00;;;18.10;54.40;;;;;;5012456;28;20053;-77
2023/02/15 11:29:54;;;;;;;9.15;5.70;;;17.60;52.90;;;;;;5043633;28;20061;-76
2023/02/15 11:32:29;;;;;;;8.00;5.60;;;16.90;58.40;;;;;;5019177;28;20052;-77
2023/02/15 11:35:10;;;;;;;8.32;5.68;;;16.90;54.70;;;;;;5021550;28;20060;-76
2023/02/15 11:38:03;;;;;;;6.93;5.28;;;17.30;55.00;;;;;;5033486;28;20041;-76
2023/02/15 11:40:45;;;;;;;7.43;5.47;;;18.50;52.90;;;;;;5014119;28;20042;-77
2023/02/15 11:43:32;;;;;;;6.68;5.38;;;18.10;51.30;;;;;;5011855;28;20045;-77
2023/02/15 11:45:58;;;;;;;7.45;5.32;;;18.20;49.30;;;;;;5013481;28;20084;-77
2023/02/15 11:48:24;;;;;;;7.75;4.85;;;17.80;50.90;;;;;;5031090;28;20463;-76
2023/02/15 11:50:50;;;;;;;6.40;4.60;;;17.60;50.70;;;;;;5046632;28;20060;-76
2023/02/15 11:53:29;;;;;;;7.55;5.70;;;17.00;52.60;;;;;;5020758;28;20046;-76
2023/02/15 11:55:54;;;;;;;7.75;5.45;;;16.30;52.10;;;;;;5019311;28;20116;-76
2023/02/15 11:58:35;;;;;;;9.88;5.72;;;16.70;50.10;;;;;;5031585;28;20129;-76
2023/02/15 12:01:14;;;;;;;9.18;5.70;;;15.20;51.70;;;;;;5027101;28;20125;-76
2023/02/15 12:03:50;;;;;;;7.88;5.68;;;14.40;54.20;;;;;;5024882;28;20076;-76
2023/02/15 12:06:28;;;;;;;7.97;6.05;;;14.30;57.80;;;;;;5026959;28;20124;-76
2023/02/15 12:09:06;;;;;;;7.97;5.90;;;15.80;50.40;;;;;;5011367;28;21089;-76
2023/02/15 12:11:52;;;;;;;8.13;5.45;;;16.30;50.30;;;;;;5011938;28;20108;-77
2023/02/15 12:14:17;;;;;;;7.65;5.88;;;15.70;52.10;;;;;;5032687;28;20049;-78
2023/02/15 12:16:46;;;;;;;8.48;5.97;;;15.10;53.50;;;;;;5006168;28;20061;-77
2023/02/15 12:19:31;;;;;;;8.30;6.18;;;15.20;55.50;;;;;;5024878;28;20076;-77
2023/02/15 12:21:59;;;;;;;7.82;5.90;;;16.00;52.60;;;;;;5022897;28;20062;-77
2023/02/15 12:24:36;;;;;;;8.65;6.38;;;17.10;51.10;;;;;;5031793;28;20085;-76
2023/02/15 12:27:11;;;;;;;9.68;6.55;;;17.70;47.10;;;;;;5020891;28;20061;-77
2023/02/15 12:29:41;;;;;;;8.77;6.30;;;16.30;52.10;;;;;;5013841;28;20466;-77
2023/02/15 12:32:25;;;;;;;9.70;7.40;;;17.40;49.60;;;;;;5027199;28;20049;-77
2023/02/15 12:34:51;;;;;;;9.52;6.82;;;16.20;48.80;;;;;;5019479;28;20041;-76
2023/02/15 12:37:24;;;;;;;10.80;8.95;;;17.80;48.60;;;;;;5027095;28;20797;-74
2023/02/15 12:39:55;;;;;;;7.85;6.45;;;18.40;47.90;;;;;;5031628;28;20381;-76
2023/02/15 12:42:21;;;;;;;7.85;6.90;;;19.00;46.60;;;;;;5024460;28;20398;-77
2023/02/15 12:44:54;;;;;;;9.18;8.27;;;18.90;45.90;;;;;;5008424;28;20046;-75
2023/02/15 12:47:20;;;;;;;9.13;8.18;;;18.10;47.90;;;;;;5025100;28;20050;-76
2023/02/15 12:50:25;;;;;;;8.82;7.55;;;18.40;48.80;;;;;;5047695;28;20748;-76
2023/02/15 12:53:32;;;;;;;8.75;7.82;;;18.60;48.90;;;;;;5016367;28;20132;-77
2023/02/15 12:56:03;;;;;;;11.80;10.52;;;19.60;45.80;;;;;;5005812;28;20041;-77
2023/02/15 12:58:32;;;;;;;12.93;11.73;;;20.60;44.90;;;;;;5033589;28;20382;-77
2023/02/15 13:01:19;;;;;;;12.30;11.10;;;21.20;43.20;;;;;;5022065;28;20041;-77
2023/02/15 13:04:05;;;;;;;14.13;12.93;;;21.40;42.40;;;;;;5018773;28;20143;-76
2023/02/15 13:06:32;;;;;;;15.05;13.55;;;21.80;41.00;;;;;;5029902;28;20497;-77
2023/02/15 13:09:05;;;;;;;11.03;10.03;;;21.30;41.00;;;;;;5010684;28;20045;-77
2023/02/15 13:11:33;;;;;;;14.63;13.32;;;21.60;41.00;;;;;;5017888;28;20046;-76
2023/02/15 13:14:00;;;;;;;;;;;22.20;39.70;;;;;;5009287;28;20056;-77
2023/02/15 13:16:34;;;;;;;13.95;9.70;;;20.00;42.50;;;;;;5030464;28;19964;-77
2023/02/15 13:19:11;;;;;;;9.95;8.23;;;21.70;39.40;;;;;;5028574;28;20045;-77
2023/02/15 13:21:38;;;;;;;10.48;8.30;;;20.80;40.20;;;;;;5021729;28;20366;-76
2023/02/15 13:24:29;;;;;;;9.98;8.65;;;20.90;40.70;;;;;;5005426;28;20045;-76